sensor_id;sensor_type;location;lat;lon;timestamp;P1;durP1;ratioP1;P2;durP2;ratioP2
7233;SDS011;3658;47.992;10.158;2023-04-08T00:01:33;1.23;;;1.13;;
7233;SDS011;3658;47.992;10.158;2023-04-08T00:04:00;1.50;;;1.30;;
7233;SDS011;3658;47.992;10.158;2023-04-08T00:06:27;1.23;;;1.13;;
7233;SDS011;3658;47.992;10.158;2023-04-08T00:08:57;1.50;;;1.40;;
7233;SDS011;3658;47.992;10.158;2023-04-08T00:11:24;1.50;;;1.30;;
7233;SDS011;3658;47.992;10.158;2023-04-08T00:13:51;1.57;;;1.20;;
7233;SDS011;3658;47.992;10.158;2023-04-08T00:16:18;1.27;;;1.17;;
7233;SDS011;3658;47.992;10.158;2023-04-08T00:18:45;1.40;;;1.30;;
7233;SDS011;3658;47.992;10.158;2023-04-08T00:21:13;1.30;;;1.20;;
7233;SDS011;3658;47.992;10.158;2023-04-08T00:23:42;1.30;;;1.20;;
7233;SDS011;3658;47.992;10.158;2023-04-08T00:26:10;1.47;;;1.20;;
7233;SDS011;3658;47.992;10.158;2023-04-08T00:28:38;1.43;;;1.33;;
7233;SDS011;3658;47.992;10.158;2023-04-08T00:31:05;1.30;;;1.20;;
7233;SDS011;3658;47.992;10.158;2023-04-08T00:33:32;1.30;;;1.20;;
7233;SDS011;3658;47.992;10.158;2023-04-08T00:35:59;1.40;;;1.30;;
7233;SDS011;3658;47.992;10.158;2023-04-08T00:38:26;1.37;;;1.27;;
7233;SDS011;3658;47.992;10.158;2023-04-08T00:40:53;1.43;;;1.33;;
7233;SDS011;3658;47.992;10.158;2023-04-08T00:43:22;1.53;;;1.43;;
7233;SDS011;3658;47.992;10.158;2023-04-08T00:45:49;1.27;;;1.17;;
7233;SDS011;3658;47.992;10.158;2023-04-08T00:48:16;1.37;;;1.20;;
7233;SDS011;3658;47.992;10.158;2023-04-08T00:50:43;1.43;;;1.33;;
7233;SDS011;3658;47.992;10.158;2023-04-08T00:53:11;1.50;;;1.40;;
7233;SDS011;3658;47.992;10.158;2023-04-08T00:55:39;1.33;;;1.17;;
7233;SDS011;3658;47.992;10.158;2023-04-08T00:58:06;1.40;;;1.30;;
7233;SDS011;3658;47.992;10.158;2023-04-08T01:00:35;1.30;;;1.20;;
7233;SDS011;3658;47.992;10.158;2023-04-08T01:03:08;1.30;;;1.20;;
7233;SDS011;3658;47.992;10.158;2023-04-08T01:05:44;1.23;;;1.10;;
7233;SDS011;3658;47.992;10.158;2023-04-08T01:08:19;1.30;;;1.20;;
7233;SDS011;3658;47.992;10.158;2023-04-08T01:10:47;1.57;;;1.37;;
7233;SDS011;3658;47.992;10.158;2023-04-08T01:13:19;1.00;;;1.00;;
7233;SDS011;3658;47.992;10.158;2023-04-08T01:15:50;1.13;;;1.07;;
7233;SDS011;3658;47.992;10.158;2023-04-08T01:18:18;1.23;;;1.13;;
7233;SDS011;3658;47.992;10.158;2023-04-08T01:20:47;1.33;;;1.23;;
7233;SDS011;3658;47.992;10.158;2023-04-08T01:23:17;1.97;;;1.30;;
7233;SDS011;3658;47.992;10.158;2023-04-08T01:25:50;1.20;;;1.10;;
7233;SDS011;3658;47.992;10.158;2023-04-08T01:28:18;1.23;;;1.13;;
7233;SDS011;3658;47.992;10.158;2023-04-08T01:30:46;1.27;;;1.17;;
7233;SDS011;3658;47.992;10.158;2023-04-08T01:33:15;1.30;;;1.20;;
7233;SDS011;3658;47.992;10.158;2023-04-08T01:35:44;1.37;;;1.27;;
7233;SDS011;3658;47.992;10.158;2023-04-08T01:38:13;1.30;;;1.20;;
7233;SDS011;3658;47.992;10.158;2023-04-08T01:40:42;1.33;;;1.23;;
7233;SDS011;3658;47.992;10.158;2023-04-08T01:43:12;1.17;;;1.10;;
7233;SDS011;3658;47.992;10.158;2023-04-08T01:45:40;1.37;;;1.13;;
7233;SDS011;3658;47.992;10.158;2023-04-08T01:48:08;1.27;;;1.13;;
7233;SDS011;3658;47.992;10.158;2023-04-08T01:50:37;1.30;;;1.20;;
7233;SDS011;3658;47.992;10.158;2023-04-08T01:53:07;1.50;;;1.23;;
7233;SDS011;3658;47.992;10.158;2023-04-08T01:55:35;1.20;;;1.10;;
7233;SDS011;3658;47.992;10.158;2023-04-08T01:58:04;1.40;;;1.30;;
7233;SDS011;3658;47.992;10.158;2023-04-08T02:00:33;1.30;;;1.20;;
7233;SDS011;3658;47.992;10.158;2023-04-08T02:03:02;1.30;;;1.20;;
7233;SDS011;3658;47.992;10.158;2023-04-08T02:05:31;1.70;;;1.60;;
7233;SDS011;3658;47.992;10.158;2023-04-08T02:07:59;1.20;;;1.10;;
7233;SDS011;3658;47.992;10.158;2023-04-08T02:10:25;1.30;;;1.20;;
7233;SDS011;3658;47.992;10.158;2023-04-08T02:12:53;1.20;;;1.10;;
7233;SDS011;3658;47.992;10.158;2023-04-08T02:15:21;1.53;;;1.33;;
7233;SDS011;3658;47.992;10.158;2023-04-08T02:17:51;1.47;;;1.10;;
7233;SDS011;3658;47.992;10.158;2023-04-08T02:20:21;1.10;;;1.00;;
7233;SDS011;3658;47.992;10.158;2023-04-08T02:22:52;1.30;;;1.20;;
7233;SDS011;3658;47.992;10.158;2023-04-08T02:25:27;1.20;;;1.10;;
7233;SDS011;3658;47.992;10.158;2023-04-08T02:27:55;1.33;;;1.23;;
7233;SDS011;3658;47.992;10.158;2023-04-08T02:30:23;2.30;;;1.30;;
7233;SDS011;3658;47.992;10.158;2023-04-08T02:32:53;2.67;;;1.00;;
7233;SDS011;3658;47.992;10.158;2023-04-08T02:35:23;1.50;;;1.10;;
7233;SDS011;3658;47.992;10.158;2023-04-08T02:37:51;1.40;;;1.30;;
7233;SDS011;3658;47.992;10.158;2023-04-08T02:40:21;1.33;;;1.23;;
7233;SDS011;3658;47.992;10.158;2023-04-08T02:42:52;1.07;;;1.00;;
7233;SDS011;3658;47.992;10.158;2023-04-08T02:45:19;1.20;;;1.10;;
7233;SDS011;3658;47.992;10.158;2023-04-08T02:47:47;1.57;;;1.30;;
7233;SDS011;3658;47.992;10.158;2023-04-08T02:50:15;1.13;;;1.07;;
7233;SDS011;3658;47.992;10.158;2023-04-08T02:52:42;1.20;;;1.10;;
7233;SDS011;3658;47.992;10.158;2023-04-08T02:55:09;1.13;;;1.03;;
7233;SDS011;3658;47.992;10.158;2023-04-08T02:57:37;1.10;;;1.00;;
7233;SDS011;3658;47.992;10.158;2023-04-08T03:00:06;1.20;;;1.10;;
7233;SDS011;3658;47.992;10.158;2023-04-08T03:02:33;1.40;;;1.30;;
7233;SDS011;3658;47.992;10.158;2023-04-08T03:05:01;2.13;;;1.20;;
7233;SDS011;3658;47.992;10.158;2023-04-08T03:07:30;1.47;;;1.03;;
7233;SDS011;3658;47.992;10.158;2023-04-08T03:09:58;6.57;;;1.30;;
7233;SDS011;3658;47.992;10.158;2023-04-08T03:12:25;1.87;;;1.30;;
7233;SDS011;3658;47.992;10.158;2023-04-08T03:14:52;1.47;;;1.23;;
7233;SDS011;3658;47.992;10.158;2023-04-08T03:17:19;5.63;;;1.20;;
7233;SDS011;3658;47.992;10.158;2023-04-08T03:19:46;5.13;;;1.67;;
7233;SDS011;3658;47.992;10.158;2023-04-08T03:22:13;1.57;;;1.10;;
7233;SDS011;3658;47.992;10.158;2023-04-08T03:24:42;2.60;;;1.27;;
7233;SDS011;3658;47.992;10.158;2023-04-08T03:27:09;1.50;;;1.37;;
7233;SDS011;3658;47.992;10.158;2023-04-08T03:29:36;1.50;;;1.10;;
7233;SDS011;3658;47.992;10.158;2023-04-08T03:32:03;1.17;;;1.00;;
7233;SDS011;3658;47.992;10.158;2023-04-08T03:34:30;1.83;;;1.30;;
7233;SDS011;3658;47.992;10.158;2023-04-08T03:36:58;1.40;;;1.30;;
7233;SDS011;3658;47.992;10.158;2023-04-08T03:39:25;2.20;;;1.10;;
7233;SDS011;3658;47.992;10.158;2023-04-08T03:41:54;1.20;;;1.10;;
7233;SDS011;3658;47.992;10.158;2023-04-08T03:44:21;1.13;;;1.07;;
7233;SDS011;3658;47.992;10.158;2023-04-08T03:46:48;1.20;;;1.10;;
7233;SDS011;3658;47.992;10.158;2023-04-08T03:49:15;1.20;;;1.10;;
7233;SDS011;3658;47.992;10.158;2023-04-08T03:51:41;0.90;;;0.90;;
7233;SDS011;3658;47.992;10.158;2023-04-08T03:54:08;6.40;;;1.30;;
7233;SDS011;3658;47.992;10.158;2023-04-08T03:56:35;2.67;;;1.17;;
7233;SDS011;3658;47.992;10.158;2023-04-08T03:59:04;1.03;;;0.93;;
7233;SDS011;3658;47.992;10.158;2023-04-08T04:01:30;1.33;;;1.00;;
7233;SDS011;3658;47.992;10.158;2023-04-08T04:03:57;1.47;;;1.10;;
7233;SDS011;3658;47.992;10.158;2023-04-08T04:06:24;0.93;;;0.93;;
7233;SDS011;3658;47.992;10.158;2023-04-08T04:08:52;1.20;;;1.00;;
7233;SDS011;3658;47.992;10.158;2023-04-08T04:11:19;1.10;;;1.07;;
7233;SDS011;3658;47.992;10.158;2023-04-08T04:13:46;1.67;;;1.10;;
7233;SDS011;3658;47.992;10.158;2023-04-08T04:16:15;1.27;;;1.00;;
7233;SDS011;3658;47.992;10.158;2023-04-08T04:18:42;1.43;;;1.20;;
7233;SDS011;3658;47.992;10.158;2023-04-08T04:21:09;1.23;;;1.13;;
7233;SDS011;3658;47.992;10.158;2023-04-08T04:23:35;1.23;;;1.10;;
7233;SDS011;3658;47.992;10.158;2023-04-08T04:26:06;1.47;;;1.00;;
7233;SDS011;3658;47.992;10.158;2023-04-08T04:28:34;1.07;;;1.00;;
7233;SDS011;3658;47.992;10.158;2023-04-08T04:31:01;1.07;;;1.00;;
7233;SDS011;3658;47.992;10.158;2023-04-08T04:33:29;0.90;;;0.90;;
7233;SDS011;3658;47.992;10.158;2023-04-08T04:35:56;1.87;;;0.80;;
7233;SDS011;3658;47.992;10.158;2023-04-08T04:38:23;1.60;;;1.20;;
7233;SDS011;3658;47.992;10.158;2023-04-08T04:40:51;1.00;;;1.00;;
7233;SDS011;3658;47.992;10.158;2023-04-08T04:43:18;1.00;;;0.90;;
7233;SDS011;3658;47.992;10.158;2023-04-08T04:45:45;1.47;;;1.10;;
7233;SDS011;3658;47.992;10.158;2023-04-08T04:48:12;1.27;;;1.17;;
7233;SDS011;3658;47.992;10.158;2023-04-08T04:50:40;3.10;;;1.20;;
7233;SDS011;3658;47.992;10.158;2023-04-08T04:53:07;0.93;;;0.93;;
7233;SDS011;3658;47.992;10.158;2023-04-08T04:55:34;1.00;;;1.00;;
7233;SDS011;3658;47.992;10.158;2023-04-08T04:58:01;1.10;;;1.00;;
7233;SDS011;3658;47.992;10.158;2023-04-08T05:00:27;1.27;;;1.10;;
7233;SDS011;3658;47.992;10.158;2023-04-08T05:02:54;0.80;;;0.80;;
7233;SDS011;3658;47.992;10.158;2023-04-08T05:05:21;1.50;;;0.90;;
7233;SDS011;3658;47.992;10.158;2023-04-08T05:07:50;1.43;;;1.00;;
7233;SDS011;3658;47.992;10.158;2023-04-08T05:10:17;0.90;;;0.90;;
7233;SDS011;3658;47.992;10.158;2023-04-08T05:12:45;1.13;;;1.07;;
7233;SDS011;3658;47.992;10.158;2023-04-08T05:15:12;1.07;;;0.97;;
7233;SDS011;3658;47.992;10.158;2023-04-08T05:17:39;1.10;;;1.00;;
7233;SDS011;3658;47.992;10.158;2023-04-08T05:20:06;1.00;;;1.00;;
7233;SDS011;3658;47.992;10.158;2023-04-08T05:22:33;1.73;;;1.10;;
7233;SDS011;3658;47.992;10.158;2023-04-08T05:25:02;1.70;;;1.00;;
7233;SDS011;3658;47.992;10.158;2023-04-08T05:27:29;0.90;;;0.90;;
7233;SDS011;3658;47.992;10.158;2023-04-08T05:29:56;1.10;;;1.10;;
7233;SDS011;3658;47.992;10.158;2023-04-08T05:32:23;1.07;;;0.97;;
7233;SDS011;3658;47.992;10.158;2023-04-08T05:34:50;1.30;;;1.00;;
7233;SDS011;3658;47.992;10.158;2023-04-08T05:37:17;1.63;;;1.10;;
7233;SDS011;3658;47.992;10.158;2023-04-08T05:39:44;0.80;;;0.80;;
7233;SDS011;3658;47.992;10.158;2023-04-08T05:42:12;1.37;;;1.00;;
7233;SDS011;3658;47.992;10.158;2023-04-08T05:44:39;1.00;;;1.00;;
7233;SDS011;3658;47.992;10.158;2023-04-08T05:47:08;1.17;;;0.90;;
7233;SDS011;3658;47.992;10.158;2023-04-08T05:49:35;1.00;;;0.90;;
7233;SDS011;3658;47.992;10.158;2023-04-08T05:52:02;1.03;;;1.00;;
7233;SDS011;3658;47.992;10.158;2023-04-08T05:54:28;1.53;;;1.30;;
7233;SDS011;3658;47.992;10.158;2023-04-08T05:56:55;1.17;;;1.07;;
7233;SDS011;3658;47.992;10.158;2023-04-08T05:59:24;0.80;;;0.80;;
7233;SDS011;3658;47.992;10.158;2023-04-08T06:01:51;0.90;;;0.90;;
7233;SDS011;3658;47.992;10.158;2023-04-08T06:04:19;0.90;;;0.90;;
7233;SDS011;3658;47.992;10.158;2023-04-08T06:06:46;1.10;;;1.00;;
7233;SDS011;3658;47.992;10.158;2023-04-08T06:09:13;1.10;;;1.00;;
7233;SDS011;3658;47.992;10.158;2023-04-08T06:11:40;1.10;;;1.00;;
7233;SDS011;3658;47.992;10.158;2023-04-08T06:14:07;0.87;;;0.87;;
7233;SDS011;3658;47.992;10.158;2023-04-08T06:16:35;1.37;;;0.80;;
7233;SDS011;3658;47.992;10.158;2023-04-08T06:19:02;1.00;;;0.90;;
7233;SDS011;3658;47.992;10.158;2023-04-08T06:21:29;1.03;;;0.97;;
7233;SDS011;3658;47.992;10.158;2023-04-08T06:23:56;1.20;;;1.10;;
7233;SDS011;3658;47.992;10.158;2023-04-08T06:26:23;0.70;;;0.70;;
7233;SDS011;3658;47.992;10.158;2023-04-08T06:28:50;1.10;;;1.00;;
7233;SDS011;3658;47.992;10.158;2023-04-08T06:31:17;0.80;;;0.80;;
7233;SDS011;3658;47.992;10.158;2023-04-08T06:33:45;1.17;;;1.00;;
7233;SDS011;3658;47.992;10.158;2023-04-08T06:36:12;0.83;;;0.83;;
7233;SDS011;3658;47.992;10.158;2023-04-08T06:38:40;1.17;;;1.07;;
7233;SDS011;3658;47.992;10.158;2023-04-08T06:41:07;0.90;;;0.90;;
7233;SDS011;3658;47.992;10.158;2023-04-08T06:43:34;0.90;;;0.90;;
7233;SDS011;3658;47.992;10.158;2023-04-08T06:46:01;1.23;;;1.00;;
7233;SDS011;3658;47.992;10.158;2023-04-08T06:48:28;0.80;;;0.80;;
7233;SDS011;3658;47.992;10.158;2023-04-08T06:50:57;1.13;;;0.93;;
7233;SDS011;3658;47.992;10.158;2023-04-08T06:53:26;0.90;;;0.90;;
7233;SDS011;3658;47.992;10.158;2023-04-08T06:55:55;1.43;;;1.00;;
7233;SDS011;3658;47.992;10.158;2023-04-08T06:58:22;0.87;;;0.87;;
7233;SDS011;3658;47.992;10.158;2023-04-08T07:00:49;0.80;;;0.80;;
7233;SDS011;3658;47.992;10.158;2023-04-08T07:03:16;0.90;;;0.90;;
7233;SDS011;3658;47.992;10.158;2023-04-08T07:05:42;0.70;;;0.70;;
7233;SDS011;3658;47.992;10.158;2023-04-08T07:08:11;0.80;;;0.80;;
7233;SDS011;3658;47.992;10.158;2023-04-08T07:10:38;0.90;;;0.90;;
7233;SDS011;3658;47.992;10.158;2023-04-08T07:13:06;0.93;;;0.93;;
7233;SDS011;3658;47.992;10.158;2023-04-08T07:15:33;0.80;;;0.80;;
7233;SDS011;3658;47.992;10.158;2023-04-08T07:18:00;1.17;;;1.07;;
7233;SDS011;3658;47.992;10.158;2023-04-08T07:20:28;1.00;;;0.93;;
7233;SDS011;3658;47.992;10.158;2023-04-08T07:22:55;1.03;;;0.90;;
7233;SDS011;3658;47.992;10.158;2023-04-08T07:25:24;1.13;;;1.10;;
7233;SDS011;3658;47.992;10.158;2023-04-08T07:27:51;0.90;;;0.90;;
7233;SDS011;3658;47.992;10.158;2023-04-08T07:30:18;0.87;;;0.80;;
7233;SDS011;3658;47.992;10.158;2023-04-08T07:32:45;0.67;;;0.67;;
7233;SDS011;3658;47.992;10.158;2023-04-08T07:35:12;1.03;;;1.00;;
7233;SDS011;3658;47.992;10.158;2023-04-08T07:37:38;0.90;;;0.90;;
7233;SDS011;3658;47.992;10.158;2023-04-08T07:40:06;1.00;;;1.00;;
7233;SDS011;3658;47.992;10.158;2023-04-08T07:42:35;0.80;;;0.80;;
7233;SDS011;3658;47.992;10.158;2023-04-08T07:45:02;1.00;;;1.00;;
7233;SDS011;3658;47.992;10.158;2023-04-08T07:47:31;0.80;;;0.80;;
7233;SDS011;3658;47.992;10.158;2023-04-08T07:49:58;0.80;;;0.80;;
7233;SDS011;3658;47.992;10.158;2023-04-08T07:52:25;0.90;;;0.90;;
7233;SDS011;3658;47.992;10.158;2023-04-08T07:54:52;0.70;;;0.70;;
7233;SDS011;3658;47.992;10.158;2023-04-08T07:57:19;0.90;;;0.90;;
7233;SDS011;3658;47.992;10.158;2023-04-08T07:59:48;1.03;;;1.00;;
7233;SDS011;3658;47.992;10.158;2023-04-08T08:02:15;0.80;;;0.80;;
7233;SDS011;3658;47.992;10.158;2023-04-08T08:04:42;0.80;;;0.80;;
7233;SDS011;3658;47.992;10.158;2023-04-08T08:07:09;2.03;;;1.07;;
7233;SDS011;3658;47.992;10.158;2023-04-08T08:09:38;1.63;;;1.10;;
7233;SDS011;3658;47.992;10.158;2023-04-08T08:12:04;4.77;;;0.90;;
7233;SDS011;3658;47.992;10.158;2023-04-08T08:14:31;2.50;;;0.90;;
7233;SDS011;3658;47.992;10.158;2023-04-08T08:17:00;5.37;;;1.10;;
7233;SDS011;3658;47.992;10.158;2023-04-08T08:19:28;4.20;;;1.83;;
7233;SDS011;3658;47.992;10.158;2023-04-08T08:21:55;2.83;;;1.17;;
7233;SDS011;3658;47.992;10.158;2023-04-08T08:24:22;0.97;;;0.97;;
7233;SDS011;3658;47.992;10.158;2023-04-08T08:26:50;7.53;;;1.10;;
7233;SDS011;3658;47.992;10.158;2023-04-08T08:29:16;6.83;;;1.17;;
7233;SDS011;3658;47.992;10.158;2023-04-08T08:31:43;4.30;;;1.10;;
7233;SDS011;3658;47.992;10.158;2023-04-08T08:34:13;2.77;;;1.17;;
7233;SDS011;3658;47.992;10.158;2023-04-08T08:36:40;0.90;;;0.83;;
7233;SDS011;3658;47.992;10.158;2023-04-08T08:39:07;1.83;;;0.90;;
7233;SDS011;3658;47.992;10.158;2023-04-08T08:41:34;2.70;;;0.97;;
7233;SDS011;3658;47.992;10.158;2023-04-08T08:44:01;2.20;;;1.10;;
7233;SDS011;3658;47.992;10.158;2023-04-08T08:46:30;1.87;;;1.00;;
7233;SDS011;3658;47.992;10.158;2023-04-08T08:48:58;2.93;;;1.10;;
7233;SDS011;3658;47.992;10.158;2023-04-08T08:51:27;2.50;;;0.90;;
7233;SDS011;3658;47.992;10.158;2023-04-08T08:53:56;1.30;;;1.00;;
7233;SDS011;3658;47.992;10.158;2023-04-08T08:56:26;1.83;;;0.90;;
7233;SDS011;3658;47.992;10.158;2023-04-08T08:58:53;1.00;;;1.00;;
7233;SDS011;3658;47.992;10.158;2023-04-08T09:01:30;1.37;;;0.97;;
7233;SDS011;3658;47.992;10.158;2023-04-08T09:04:09;2.30;;;1.00;;
7233;SDS011;3658;47.992;10.158;2023-04-08T09:06:42;1.67;;;1.00;;
7233;SDS011;3658;47.992;10.158;2023-04-08T09:09:10;0.90;;;0.90;;
7233;SDS011;3658;47.992;10.158;2023-04-08T09:11:37;1.53;;;0.90;;
7233;SDS011;3658;47.992;10.158;2023-04-08T09:14:16;0.80;;;0.80;;
7233;SDS011;3658;47.992;10.158;2023-04-08T09:16:47;0.80;;;0.80;;
7233;SDS011;3658;47.992;10.158;2023-04-08T09:19:14;1.10;;;1.00;;
7233;SDS011;3658;47.992;10.158;2023-04-08T09:21:43;1.53;;;1.10;;
7233;SDS011;3658;47.992;10.158;2023-04-08T09:24:27;2.30;;;1.00;;
7233;SDS011;3658;47.992;10.158;2023-04-08T09:26:55;6.73;;;1.83;;
7233;SDS011;3658;47.992;10.158;2023-04-08T09:29:22;1.80;;;1.10;;
7233;SDS011;3658;47.992;10.158;2023-04-08T09:31:52;2.80;;;1.10;;
7233;SDS011;3658;47.992;10.158;2023-04-08T09:34:20;2.10;;;1.00;;
7233;SDS011;3658;47.992;10.158;2023-04-08T09:36:48;1.17;;;1.00;;
7233;SDS011;3658;47.992;10.158;2023-04-08T09:39:15;2.03;;;1.10;;
7233;SDS011;3658;47.992;10.158;2023-04-08T09:41:43;3.17;;;1.20;;
7233;SDS011;3658;47.992;10.158;2023-04-08T09:44:14;1.20;;;1.10;;
7233;SDS011;3658;47.992;10.158;2023-04-08T09:46:44;4.90;;;1.00;;
7233;SDS011;3658;47.992;10.158;2023-04-08T09:49:23;4.20;;;1.20;;
7233;SDS011;3658;47.992;10.158;2023-04-08T09:51:56;1.20;;;1.10;;
7233;SDS011;3658;47.992;10.158;2023-04-08T09:54:30;2.13;;;0.97;;
7233;SDS011;3658;47.992;10.158;2023-04-08T09:57:04;3.03;;;1.10;;
7233;SDS011;3658;47.992;10.158;2023-04-08T09:59:35;1.13;;;1.03;;
7233;SDS011;3658;47.992;10.158;2023-04-08T10:02:06;1.47;;;1.23;;
7233;SDS011;3658;47.992;10.158;2023-04-08T10:04:37;1.33;;;1.23;;
7233;SDS011;3658;47.992;10.158;2023-04-08T10:07:08;1.27;;;1.13;;
7233;SDS011;3658;47.992;10.158;2023-04-08T10:09:35;3.13;;;1.20;;
7233;SDS011;3658;47.992;10.158;2023-04-08T10:12:05;1.73;;;1.20;;
7233;SDS011;3658;47.992;10.158;2023-04-08T10:14:32;1.47;;;1.17;;
7233;SDS011;3658;47.992;10.158;2023-04-08T10:19:59;1.60;;;1.30;;
7233;SDS011;3658;47.992;10.158;2023-04-08T10:22:46;6.33;;;1.73;;
7233;SDS011;3658;47.992;10.158;2023-04-08T10:25:30;4.00;;;1.73;;
7233;SDS011;3658;47.992;10.158;2023-04-08T10:27:58;4.87;;;1.60;;
7233;SDS011;3658;47.992;10.158;2023-04-08T10:30:38;2.23;;;1.40;;
7233;SDS011;3658;47.992;10.158;2023-04-08T10:33:10;1.83;;;1.10;;
7233;SDS011;3658;47.992;10.158;2023-04-08T10:35:39;4.53;;;1.60;;
7233;SDS011;3658;47.992;10.158;2023-04-08T10:38:11;4.43;;;1.37;;
7233;SDS011;3658;47.992;10.158;2023-04-08T10:40:39;1.63;;;1.43;;
7233;SDS011;3658;47.992;10.158;2023-04-08T10:43:07;2.93;;;1.40;;
7233;SDS011;3658;47.992;10.158;2023-04-08T10:45:34;1.90;;;1.50;;
7233;SDS011;3658;47.992;10.158;2023-04-08T10:48:14;2.97;;;1.37;;
7233;SDS011;3658;47.992;10.158;2023-04-08T10:50:43;1.50;;;1.40;;
7233;SDS011;3658;47.992;10.158;2023-04-08T10:53:11;2.17;;;1.57;;
7233;SDS011;3658;47.992;10.158;2023-04-08T10:55:38;1.90;;;1.40;;
7233;SDS011;3658;47.992;10.158;2023-04-08T10:58:06;2.20;;;1.40;;
7233;SDS011;3658;47.992;10.158;2023-04-08T11:00:35;1.53;;;1.43;;
7233;SDS011;3658;47.992;10.158;2023-04-08T11:03:03;1.63;;;1.50;;
7233;SDS011;3658;47.992;10.158;2023-04-08T11:05:32;1.67;;;1.50;;
7233;SDS011;3658;47.992;10.158;2023-04-08T11:07:59;1.50;;;1.40;;
7233;SDS011;3658;47.992;10.158;2023-04-08T11:10:27;2.30;;;1.30;;
7233;SDS011;3658;47.992;10.158;2023-04-08T11:12:55;3.53;;;1.20;;
7233;SDS011;3658;47.992;10.158;2023-04-08T11:15:23;1.50;;;1.30;;
7233;SDS011;3658;47.992;10.158;2023-04-08T11:17:50;2.57;;;1.43;;
7233;SDS011;3658;47.992;10.158;2023-04-08T11:20:19;1.43;;;1.20;;
7233;SDS011;3658;47.992;10.158;2023-04-08T11:22:46;1.77;;;1.57;;
7233;SDS011;3658;47.992;10.158;2023-04-08T11:25:13;3.00;;;1.40;;
7233;SDS011;3658;47.992;10.158;2023-04-08T11:27:42;4.33;;;1.40;;
7233;SDS011;3658;47.992;10.158;2023-04-08T11:30:09;5.27;;;2.50;;
7233;SDS011;3658;47.992;10.158;2023-04-08T11:32:37;7.50;;;4.00;;
7233;SDS011;3658;47.992;10.158;2023-04-08T11:35:04;4.63;;;4.23;;
7233;SDS011;3658;47.992;10.158;2023-04-08T11:37:38;6.57;;;5.00;;
7233;SDS011;3658;47.992;10.158;2023-04-08T11:40:06;8.87;;;5.20;;
7233;SDS011;3658;47.992;10.158;2023-04-08T11:42:34;6.20;;;5.10;;
7233;SDS011;3658;47.992;10.158;2023-04-08T11:45:08;5.20;;;4.70;;
7233;SDS011;3658;47.992;10.158;2023-04-08T11:47:36;5.47;;;4.40;;
7233;SDS011;3658;47.992;10.158;2023-04-08T11:50:03;5.73;;;4.30;;
7233;SDS011;3658;47.992;10.158;2023-04-08T11:52:41;5.30;;;4.80;;
7233;SDS011;3658;47.992;10.158;2023-04-08T11:55:09;5.30;;;4.70;;
7233;SDS011;3658;47.992;10.158;2023-04-08T11:57:37;5.10;;;4.47;;
7233;SDS011;3658;47.992;10.158;2023-04-08T12:00:06;5.90;;;5.20;;
7233;SDS011;3658;47.992;10.158;2023-04-08T12:02:33;5.87;;;5.27;;
7233;SDS011;3658;47.992;10.158;2023-04-08T12:05:00;5.50;;;5.00;;
7233;SDS011;3658;47.992;10.158;2023-04-08T12:07:27;7.90;;;4.93;;
7233;SDS011;3658;47.992;10.158;2023-04-08T12:09:54;5.43;;;4.93;;
7233;SDS011;3658;47.992;10.158;2023-04-08T12:12:22;6.67;;;4.13;;
7233;SDS011;3658;47.992;10.158;2023-04-08T12:14:50;4.00;;;3.60;;
7233;SDS011;3658;47.992;10.158;2023-04-08T12:17:18;3.90;;;3.50;;
7233;SDS011;3658;47.992;10.158;2023-04-08T12:19:45;4.43;;;2.83;;
7233;SDS011;3658;47.992;10.158;2023-04-08T12:22:12;5.60;;;2.60;;
7233;SDS011;3658;47.992;10.158;2023-04-08T12:24:40;4.07;;;2.77;;
7233;SDS011;3658;47.992;10.158;2023-04-08T12:27:07;3.20;;;2.50;;
7233;SDS011;3658;47.992;10.158;2023-04-08T12:29:34;2.60;;;2.27;;
7233;SDS011;3658;47.992;10.158;2023-04-08T12:32:01;3.10;;;2.30;;
7233;SDS011;3658;47.992;10.158;2023-04-08T12:34:31;3.87;;;2.00;;
7233;SDS011;3658;47.992;10.158;2023-04-08T12:36:58;2.47;;;2.20;;
7233;SDS011;3658;47.992;10.158;2023-04-08T12:39:26;2.27;;;2.07;;
7233;SDS011;3658;47.992;10.158;2023-04-08T12:41:53;5.27;;;2.50;;
7233;SDS011;3658;47.992;10.158;2023-04-08T12:44:20;5.57;;;2.37;;
7233;SDS011;3658;47.992;10.158;2023-04-08T12:46:47;3.73;;;2.10;;
7233;SDS011;3658;47.992;10.158;2023-04-08T12:49:14;3.97;;;2.00;;
7233;SDS011;3658;47.992;10.158;2023-04-08T12:51:43;2.87;;;1.80;;
7233;SDS011;3658;47.992;10.158;2023-04-08T12:54:10;2.37;;;2.00;;
7233;SDS011;3658;47.992;10.158;2023-04-08T12:56:37;2.60;;;1.77;;
7233;SDS011;3658;47.992;10.158;2023-04-08T12:59:04;6.10;;;2.17;;
7233;SDS011;3658;47.992;10.158;2023-04-08T13:01:31;3.97;;;1.93;;
7233;SDS011;3658;47.992;10.158;2023-04-08T13:03:58;3.00;;;1.80;;
7233;SDS011;3658;47.992;10.158;2023-04-08T13:06:25;2.23;;;1.67;;
7233;SDS011;3658;47.992;10.158;2023-04-08T13:08:53;2.53;;;1.80;;
7233;SDS011;3658;47.992;10.158;2023-04-08T13:11:20;4.40;;;1.93;;
7233;SDS011;3658;47.992;10.158;2023-04-08T13:13:47;4.37;;;1.87;;
7233;SDS011;3658;47.992;10.158;2023-04-08T13:16:14;1.73;;;1.60;;
7233;SDS011;3658;47.992;10.158;2023-04-08T13:18:41;2.57;;;1.77;;
7233;SDS011;3658;47.992;10.158;2023-04-08T13:21:08;3.87;;;1.83;;
7233;SDS011;3658;47.992;10.158;2023-04-08T13:23:35;2.17;;;1.80;;
7233;SDS011;3658;47.992;10.158;2023-04-08T13:26:04;4.40;;;1.67;;
7233;SDS011;3658;47.992;10.158;2023-04-08T13:28:31;1.93;;;1.70;;
7233;SDS011;3658;47.992;10.158;2023-04-08T13:30:58;3.77;;;1.87;;
7233;SDS011;3658;47.992;10.158;2023-04-08T13:33:25;3.77;;;1.77;;
7233;SDS011;3658;47.992;10.158;2023-04-08T13:35:52;2.27;;;1.77;;
7233;SDS011;3658;47.992;10.158;2023-04-08T13:38:19;1.80;;;1.70;;
7233;SDS011;3658;47.992;10.158;2023-04-08T13:40:46;4.93;;;1.80;;
7233;SDS011;3658;47.992;10.158;2023-04-08T13:43:15;1.70;;;1.60;;
7233;SDS011;3658;47.992;10.158;2023-04-08T13:45:42;2.47;;;1.90;;
7233;SDS011;3658;47.992;10.158;2023-04-08T13:48:10;2.03;;;1.90;;
7233;SDS011;3658;47.992;10.158;2023-04-08T13:50:37;2.47;;;1.90;;
7233;SDS011;3658;47.992;10.158;2023-04-08T13:53:05;1.50;;;1.40;;
7233;SDS011;3658;47.992;10.158;2023-04-08T13:55:32;2.10;;;1.60;;
7233;SDS011;3658;47.992;10.158;2023-04-08T13:57:59;2.33;;;1.80;;
7233;SDS011;3658;47.992;10.158;2023-04-08T14:00:28;2.27;;;1.50;;
7233;SDS011;3658;47.992;10.158;2023-04-08T14:02:55;3.20;;;2.00;;
7233;SDS011;3658;47.992;10.158;2023-04-08T14:05:22;3.10;;;1.60;;
7233;SDS011;3658;47.992;10.158;2023-04-08T14:07:49;4.90;;;2.17;;
7233;SDS011;3658;47.992;10.158;2023-04-08T14:10:16;2.43;;;1.90;;
7233;SDS011;3658;47.992;10.158;2023-04-08T14:12:43;1.70;;;1.60;;
7233;SDS011;3658;47.992;10.158;2023-04-08T14:15:10;3.13;;;1.90;;
7233;SDS011;3658;47.992;10.158;2023-04-08T14:17:39;2.40;;;1.90;;
7233;SDS011;3658;47.992;10.158;2023-04-08T14:20:06;2.00;;;1.77;;
7233;SDS011;3658;47.992;10.158;2023-04-08T14:22:34;4.13;;;1.63;;
7233;SDS011;3658;47.992;10.158;2023-04-08T14:25:01;2.20;;;1.90;;
7233;SDS011;3658;47.992;10.158;2023-04-08T14:27:28;2.07;;;1.73;;
7233;SDS011;3658;47.992;10.158;2023-04-08T14:29:55;2.50;;;2.27;;
7233;SDS011;3658;47.992;10.158;2023-04-08T14:32:23;2.70;;;2.30;;
7233;SDS011;3658;47.992;10.158;2023-04-08T14:34:51;2.20;;;2.00;;
7233;SDS011;3658;47.992;10.158;2023-04-08T14:37:18;4.13;;;2.00;;
7233;SDS011;3658;47.992;10.158;2023-04-08T14:39:46;2.53;;;1.80;;
7233;SDS011;3658;47.992;10.158;2023-04-08T14:42:13;3.07;;;2.10;;
7233;SDS011;3658;47.992;10.158;2023-04-08T14:44:42;3.33;;;2.00;;
7233;SDS011;3658;47.992;10.158;2023-04-08T14:47:09;3.53;;;1.90;;
7233;SDS011;3658;47.992;10.158;2023-04-08T14:49:36;2.20;;;1.93;;
7233;SDS011;3658;47.992;10.158;2023-04-08T14:52:04;1.93;;;1.77;;
7233;SDS011;3658;47.992;10.158;2023-04-08T14:54:31;2.07;;;1.70;;
7233;SDS011;3658;47.992;10.158;2023-04-08T14:56:58;2.13;;;1.77;;
7233;SDS011;3658;47.992;10.158;2023-04-08T14:59:26;1.80;;;1.60;;
7233;SDS011;3658;47.992;10.158;2023-04-08T15:01:53;1.70;;;1.57;;
7233;SDS011;3658;47.992;10.158;2023-04-08T15:04:26;2.77;;;1.90;;
7233;SDS011;3658;47.992;10.158;2023-04-08T15:07:00;2.67;;;1.47;;
7233;SDS011;3658;47.992;10.158;2023-04-08T15:09:35;2.90;;;1.63;;